createdAt,value
2022-09-17T00:00:33.377Z,10.90
2022-09-17T00:02:59.747Z,6.55
2022-09-17T00:05:26.076Z,11.27
2022-09-17T00:07:53.103Z,13.10
2022-09-17T00:10:20.844Z,11.23
2022-09-17T00:12:47.683Z,14.23
2022-09-17T00:15:14.071Z,12.25
2022-09-17T00:17:41.012Z,12.52
2022-09-17T00:20:11.708Z,13.93
2022-09-17T00:22:39.438Z,11.15
2022-09-17T00:25:08.475Z,9.90
2022-09-17T00:27:34.819Z,8.88
2022-09-17T00:30:01.289Z,11.00
2022-09-17T00:32:27.740Z,11.35
2022-09-17T00:34:54.084Z,12.10
2022-09-17T00:37:20.522Z,6.35
2022-09-17T00:39:46.838Z,11.93
2022-09-17T00:42:14.691Z,13.95
2022-09-17T00:44:54.107Z,10.90
2022-09-17T00:47:25.112Z,10.98
2022-09-17T00:49:56.599Z,8.35
2022-09-17T00:52:28.539Z,15.85
2022-09-17T00:55:03.343Z,12.40
2022-09-17T00:57:31.019Z,8.80
2022-09-17T00:59:57.973Z,15.37
2022-09-17T01:02:25.400Z,10.57
2022-09-17T01:04:51.723Z,11.50
2022-09-17T01:07:24.094Z,8.63
2022-09-17T01:09:53.330Z,13.15
2022-09-17T01:12:31.597Z,11.55
2022-09-17T01:15:33.086Z,15.93
2022-09-17T01:18:11.706Z,12.93
2022-09-17T01:21:14.705Z,12.88
2022-09-17T01:24:13.637Z,14.15
2022-09-17T01:27:10.877Z,12.45
2022-09-17T01:30:13.001Z,13.25
2022-09-17T01:32:46.037Z,16.15
2022-09-17T01:35:27.534Z,13.43
2022-09-17T01:38:18.910Z,11.80
2022-09-17T01:41:08.774Z,14.50
2022-09-17T01:43:54.776Z,14.07
2022-09-17T01:46:43.025Z,10.88
2022-09-17T01:49:13.046Z,19.88
2022-09-17T01:51:42.186Z,18.80
2022-09-17T01:54:32.276Z,12.82
2022-09-17T01:57:23.165Z,18.73
2022-09-17T01:59:55.622Z,21.15
2022-09-17T02:02:38.588Z,23.35
2022-09-17T02:05:19.386Z,14.68
2022-09-17T02:07:52.715Z,15.88
2022-09-17T02:10:23.858Z,13.60
2022-09-17T02:12:56.005Z,21.20
2022-09-17T02:15:26.806Z,12.77
2022-09-17T02:18:02.931Z,12.38
2022-09-17T02:20:43.378Z,13.70
2022-09-17T02:23:16.797Z,14.95
2022-09-17T02:25:57.283Z,17.65
2022-09-17T02:28:31.450Z,16.63
2022-09-17T02:30:57.802Z,14.43
2022-09-17T02:33:25.813Z,12.82
2022-09-17T02:35:52.245Z,12.70
2022-09-17T02:38:25.305Z,15.52
2022-09-17T02:41:01.469Z,14.80
2022-09-17T02:43:41.675Z,18.08
2022-09-17T02:46:19.147Z,13.48
2022-09-17T02:49:13.207Z,13.02
2022-09-17T02:51:53.489Z,15.45
2022-09-17T02:54:40.830Z,13.25
2022-09-17T02:57:23.513Z,7.80
2022-09-17T03:00:09.367Z,9.73
2022-09-17T03:02:45.480Z,19.60
2022-09-17T03:05:13.301Z,15.68
2022-09-17T03:07:40.255Z,11.75
2022-09-17T03:10:07.203Z,14.00
2022-09-17T03:12:36.052Z,11.25
2022-09-17T03:15:03.281Z,12.10
2022-09-17T03:17:30.129Z,17.23
2022-09-17T03:19:56.566Z,24.27
2022-09-17T03:22:22.855Z,18.42
2022-09-17T03:24:49.161Z,16.17
2022-09-17T03:27:15.886Z,13.38
2022-09-17T03:29:42.167Z,13.15
2022-09-17T03:32:08.536Z,11.98
2022-09-17T03:34:34.831Z,11.45
2022-09-17T03:37:01.329Z,17.92
2022-09-17T03:39:29.147Z,15.00
2022-09-17T03:41:55.424Z,15.13
2022-09-17T03:44:23.637Z,13.63
2022-09-17T03:46:50.712Z,20.83
2022-09-17T03:49:17.059Z,17.50
2022-09-17T03:51:43.400Z,11.85
2022-09-17T03:54:09.707Z,12.40
2022-09-17T03:56:36.057Z,13.02
2022-09-17T03:59:02.451Z,22.10
2022-09-17T04:01:29.257Z,15.65
2022-09-17T04:03:56.037Z,16.95
2022-09-17T04:06:22.446Z,15.45
2022-09-17T04:08:48.716Z,16.60
2022-09-17T04:11:15.092Z,19.00
2022-09-17T04:13:41.438Z,11.45
2022-09-17T04:16:07.892Z,10.60
2022-09-17T04:18:34.388Z,18.73
2022-09-17T04:21:00.903Z,23.90
2022-09-17T04:23:27.193Z,13.43
2022-09-17T04:25:53.484Z,11.77
2022-09-17T04:28:19.767Z,13.00
2022-09-17T04:30:48.020Z,17.60
2022-09-17T04:33:14.325Z,19.48
2022-09-17T04:35:40.615Z,17.23
2022-09-17T04:38:06.966Z,10.35
2022-09-17T04:40:33.351Z,10.80
2022-09-17T04:43:02.851Z,9.50
2022-09-17T04:45:30.574Z,20.15
2022-09-17T04:47:57.403Z,16.20
2022-09-17T04:50:23.721Z,11.65
2022-09-17T04:52:50.131Z,16.13
2022-09-17T04:55:16.879Z,16.65
2022-09-17T04:57:51.636Z,13.70
2022-09-17T05:00:19.176Z,17.13
2022-09-17T05:02:47.694Z,14.32
2022-09-17T05:05:14.917Z,16.65
2022-09-17T05:07:42.213Z,15.23
2022-09-17T05:10:10.490Z,14.20
2022-09-17T05:12:36.880Z,16.05
2022-09-17T05:15:03.617Z,14.32
2022-09-17T05:17:29.924Z,12.93
2022-09-17T05:19:56.230Z,16.85
2022-09-17T05:22:22.534Z,9.82
2022-09-17T05:24:48.900Z,13.60
2022-09-17T05:27:15.395Z,13.32
2022-09-17T05:29:41.717Z,14.10
2022-09-17T05:32:08.001Z,15.07
2022-09-17T05:34:34.488Z,17.27
2022-09-17T05:37:00.818Z,17.08
2022-09-17T05:39:27.109Z,13.02
2022-09-17T05:41:54.458Z,12.98
2022-09-17T05:44:21.320Z,10.57
2022-09-17T05:46:48.123Z,14.00
2022-09-17T05:49:15.058Z,13.45
2022-09-17T05:51:42.484Z,13.65
2022-09-17T05:54:09.400Z,11.18
2022-09-17T05:56:35.694Z,12.32
2022-09-17T05:59:01.987Z,6.40
2022-09-17T06:01:28.367Z,14.68
2022-09-17T06:03:54.779Z,14.52
2022-09-17T06:06:21.065Z,14.30
2022-09-17T06:08:47.357Z,9.30
2022-09-17T06:11:13.850Z,13.77
2022-09-17T06:13:40.198Z,7.90
2022-09-17T06:16:06.518Z,14.40
2022-09-17T06:18:32.909Z,12.60
2022-09-17T06:21:01.930Z,10.68
2022-09-17T06:23:33.065Z,9.80
2022-09-17T06:26:00.337Z,13.30
2022-09-17T06:28:27.587Z,11.45
2022-09-17T06:30:54.294Z,19.80
2022-09-17T06:33:21.792Z,10.85
2022-09-17T06:35:48.122Z,9.93
2022-09-17T06:38:14.758Z,10.73
2022-09-17T06:40:41.258Z,14.55
2022-09-17T06:43:07.582Z,12.68
2022-09-17T06:45:33.868Z,10.07
2022-09-17T06:48:04.153Z,17.73
2022-09-17T06:50:31.112Z,8.18
2022-09-17T06:52:57.423Z,15.27
2022-09-17T06:55:23.981Z,12.23
2022-09-17T06:57:50.336Z,11.75
2022-09-17T07:00:16.728Z,9.27
2022-09-17T07:02:43.026Z,10.50
2022-09-17T07:05:09.529Z,11.20
2022-09-17T07:07:35.820Z,11.23
2022-09-17T07:10:02.864Z,10.35
2022-09-17T07:12:29.156Z,8.65
2022-09-17T07:14:55.454Z,13.90
2022-09-17T07:17:21.779Z,11.43
2022-09-17T07:19:48.061Z,11.05
2022-09-17T07:22:14.365Z,8.43
2022-09-17T07:24:40.663Z,12.20
2022-09-17T07:27:06.961Z,12.43
2022-09-17T07:29:33.267Z,14.68
2022-09-17T07:31:59.668Z,12.00
2022-09-17T07:34:28.702Z,7.78
2022-09-17T07:36:54.990Z,6.82
2022-09-17T07:39:21.310Z,15.32
2022-09-17T07:41:47.605Z,14.90
2022-09-17T07:44:13.897Z,9.93
2022-09-17T07:46:40.380Z,10.20
2022-09-17T07:49:06.727Z,10.70
2022-09-17T07:51:33.090Z,10.38
2022-09-17T07:53:59.871Z,9.07
2022-09-17T07:56:27.234Z,11.80
2022-09-17T07:58:54.079Z,11.80
2022-09-17T08:01:23.365Z,12.75
2022-09-17T08:03:52.461Z,5.90
2022-09-17T08:06:28.493Z,11.60
2022-09-17T08:08:57.008Z,7.28
2022-09-17T08:14:14.569Z,8.95
2022-09-17T08:19:09.023Z,8.00
2022-09-17T08:21:35.750Z,6.22
2022-09-17T08:24:02.165Z,14.68
2022-09-17T08:26:28.731Z,12.02
2022-09-17T08:28:56.420Z,12.60
2022-09-17T08:31:24.885Z,9.40
2022-09-17T08:33:51.239Z,5.32
2022-09-17T08:36:19.141Z,5.47
2022-09-17T08:38:46.102Z,10.25
2022-09-17T08:41:40.347Z,7.88
2022-09-17T08:44:13.711Z,11.77
2022-09-17T08:46:50.596Z,7.55
2022-09-17T08:49:33.900Z,10.23
2022-09-17T08:52:12.040Z,14.25
2022-09-17T08:54:42.590Z,13.35
2022-09-17T08:57:33.596Z,8.57
2022-09-17T09:00:12.082Z,9.27
2022-09-17T09:05:21.078Z,12.43
2022-09-17T09:07:52.710Z,8.70
2022-09-17T09:10:24.376Z,11.98
2022-09-17T09:12:52.705Z,9.00
2022-09-17T09:15:29.358Z,7.35
2022-09-17T09:18:03.288Z,8.35
2022-09-17T09:20:47.944Z,6.45
2022-09-17T09:23:34.440Z,10.55
2022-09-17T09:26:16.694Z,5.63
2022-09-17T09:29:04.258Z,7.57
2022-09-17T09:31:56.509Z,6.57
2022-09-17T09:34:23.810Z,7.00
2022-09-17T09:36:51.718Z,8.38
2022-09-17T09:39:23.720Z,6.13
2022-09-17T09:41:59.946Z,9.70
2022-09-17T09:44:26.856Z,8.02
2022-09-17T09:47:12.326Z,6.32
2022-09-17T09:50:00.143Z,6.45
2022-09-17T09:52:48.649Z,8.30
2022-09-17T09:58:17.449Z,9.73
2022-09-17T10:00:43.868Z,15.25
2022-09-17T10:03:21.339Z,5.47
2022-09-17T10:05:58.729Z,6.13
2022-09-17T10:08:25.841Z,5.20
2022-09-17T10:11:02.752Z,7.80
2022-09-17T10:13:35.633Z,13.32
2022-09-17T10:16:20.393Z,11.50
2022-09-17T10:18:48.460Z,10.50
2022-09-17T10:21:22.409Z,8.27
2022-09-17T10:23:50.396Z,9.95
2022-09-17T10:26:35.339Z,4.25
2022-09-17T10:29:13.321Z,4.60
2022-09-17T10:31:48.453Z,6.93
2022-09-17T10:34:21.578Z,4.90
2022-09-17T10:36:48.728Z,9.20
2022-09-17T10:39:27.173Z,4.95
2022-09-17T10:44:51.126Z,6.40
2022-09-17T10:47:34.482Z,3.90
2022-09-17T10:50:23.898Z,2.08
2022-09-17T10:52:53.505Z,7.05
2022-09-17T10:56:01.309Z,4.15
2022-09-17T10:59:03.104Z,2.80
2022-09-17T11:01:52.182Z,10.05
2022-09-17T11:04:18.530Z,2.50
2022-09-17T11:06:59.502Z,4.25
2022-09-17T11:09:26.166Z,6.50
2022-09-17T11:12:04.836Z,3.97
2022-09-17T11:14:46.972Z,5.20
2022-09-17T11:17:43.636Z,4.40
2022-09-17T11:20:28.643Z,3.58
2022-09-17T11:23:05.143Z,2.92
2022-09-17T11:26:13.708Z,3.05
2022-09-17T11:28:56.026Z,4.18
2022-09-17T11:31:43.622Z,3.20
2022-09-17T11:34:28.333Z,2.30
2022-09-17T11:37:06.922Z,4.20
2022-09-17T11:39:57.335Z,6.30
2022-09-17T11:42:51.649Z,4.80
2022-09-17T11:45:25.642Z,2.78
2022-09-17T11:48:13.769Z,2.42
2022-09-17T11:50:43.422Z,5.75
2022-09-17T11:53:26.806Z,6.35
2022-09-17T11:55:57.674Z,5.82
2022-09-17T11:58:42.344Z,5.20
2022-09-17T12:01:17.010Z,9.40
2022-09-17T12:03:53.357Z,5.38
2022-09-17T12:06:35.309Z,3.67
2022-09-17T12:09:14.020Z,2.20
2022-09-17T12:11:46.344Z,1.75
2022-09-17T12:14:21.638Z,8.05
2022-09-17T12:16:52.926Z,2.67
2022-09-17T12:19:46.673Z,2.55
2022-09-17T12:22:23.440Z,2.00
2022-09-17T12:24:51.198Z,4.05
2022-09-17T12:27:23.470Z,1.47
2022-09-17T12:30:11.596Z,1.60
2022-09-17T12:33:00.971Z,3.03
2022-09-17T12:38:40.950Z,6.13
2022-09-17T12:41:19.057Z,6.28
2022-09-17T12:44:04.018Z,5.53
2022-09-17T12:46:39.628Z,7.22
2022-09-17T12:49:33.869Z,2.35
2022-09-17T12:52:23.064Z,3.35
2022-09-17T12:55:07.763Z,3.35
2022-09-17T12:58:17.629Z,6.47
2022-09-17T13:00:59.496Z,6.72
2022-09-17T13:03:32.950Z,4.90
2022-09-17T13:06:14.314Z,1.85
2022-09-17T13:09:09.158Z,3.95
2022-09-17T13:12:00.718Z,4.88
2022-09-17T13:15:02.841Z,3.72
2022-09-17T13:18:12.758Z,2.15
2022-09-17T13:20:54.154Z,3.08
2022-09-17T13:23:40.483Z,4.82
2022-09-17T13:26:08.758Z,4.45
2022-09-17T13:28:47.851Z,3.85
2022-09-17T13:31:40.642Z,5.35
2022-09-17T13:34:19.112Z,4.30
2022-09-17T13:36:53.717Z,2.63
2022-09-17T13:39:47.377Z,6.85
2022-09-17T13:42:21.374Z,8.88
2022-09-17T13:45:18.492Z,5.47
2022-09-17T13:47:54.073Z,4.07
2022-09-17T13:50:35.440Z,5.10
2022-09-17T13:53:16.870Z,3.08
2022-09-17T13:55:48.111Z,8.20
2022-09-17T13:58:23.503Z,4.80
2022-09-17T14:01:13.395Z,4.05
2022-09-17T14:03:45.527Z,6.97
2022-09-17T14:06:11.879Z,7.13
2022-09-17T14:08:44.193Z,6.25
2022-09-17T14:11:37.427Z,3.40
2022-09-17T14:14:07.814Z,3.63
2022-09-17T14:16:43.015Z,6.60
2022-09-17T14:19:15.391Z,5.75
2022-09-17T14:22:00.387Z,10.55
2022-09-17T14:24:37.530Z,6.68
2022-09-17T14:27:42.551Z,5.07
2022-09-17T14:30:24.074Z,10.02
2022-09-17T14:32:56.101Z,3.00
2022-09-17T14:35:42.141Z,3.72
2022-09-17T14:38:33.574Z,5.55
2022-09-17T14:40:59.760Z,7.72
2022-09-17T14:43:43.754Z,7.35
2022-09-17T14:46:17.825Z,6.93
2022-09-17T14:48:44.197Z,5.20
2022-09-17T14:51:19.713Z,5.43
2022-09-17T14:54:06.915Z,3.67
2022-09-17T14:56:36.381Z,2.55
2022-09-17T14:59:02.688Z,5.18
2022-09-17T15:01:30.863Z,1.90
2022-09-17T15:04:12.488Z,1.98
2022-09-17T15:06:41.821Z,4.13
2022-09-17T15:09:25.912Z,3.03
2022-09-17T15:11:55.197Z,4.65
2022-09-17T15:14:26.892Z,4.22
2022-09-17T15:16:55.188Z,4.75
2022-09-17T15:19:35.799Z,3.78
2022-09-17T15:22:08.620Z,7.80
2022-09-17T15:24:53.963Z,3.38
2022-09-17T15:27:30.644Z,2.38
2022-09-17T15:30:09.556Z,3.70
2022-09-17T15:32:36.238Z,3.28
2022-09-17T15:35:11.933Z,4.88
2022-09-17T15:37:46.659Z,3.42
2022-09-17T15:40:28.281Z,4.95
2022-09-17T15:43:14.311Z,3.60
2022-09-17T15:45:42.441Z,7.18
2022-09-17T15:48:32.778Z,5.47
2022-09-17T15:51:01.102Z,5.88
2022-09-17T15:53:30.098Z,4.20
2022-09-17T15:56:09.450Z,7.28
2022-09-17T15:58:41.510Z,5.32
2022-09-17T16:01:13.815Z,5.65
2022-09-17T16:03:40.247Z,4.45
2022-09-17T16:06:18.613Z,5.43
2022-09-17T16:08:58.300Z,4.90
2022-09-17T16:11:34.853Z,2.72
2022-09-17T16:14:01.529Z,6.50
2022-09-17T16:16:33.881Z,3.05
2022-09-17T16:19:00.710Z,8.95
2022-09-17T16:21:27.649Z,4.88
2022-09-17T16:23:54.017Z,4.80
2022-09-17T16:26:22.568Z,6.55
2022-09-17T16:31:16.313Z,20.25
2022-09-17T16:33:42.652Z,15.40
2022-09-17T16:36:09.280Z,4.40
2022-09-17T16:38:36.211Z,38.17
2022-09-17T16:41:05.517Z,33.70
2022-09-17T16:43:33.539Z,16.48
2022-09-17T16:46:05.211Z,16.73
2022-09-17T16:48:33.004Z,17.95
2022-09-17T16:51:01.319Z,9.38
2022-09-17T16:53:27.684Z,10.60
2022-09-17T16:55:53.989Z,22.55
2022-09-17T16:58:20.295Z,21.40
2022-09-17T17:00:46.648Z,29.45
2022-09-17T17:03:14.315Z,24.48
2022-09-17T17:05:41.158Z,17.05
2022-09-17T17:08:09.007Z,28.38
2022-09-17T17:10:37.806Z,54.75
2022-09-17T17:13:04.846Z,14.75
2022-09-17T17:15:31.237Z,28.65
2022-09-17T17:17:57.854Z,25.25
2022-09-17T17:20:24.137Z,10.35
2022-09-17T17:22:52.804Z,11.38
2022-09-17T17:27:45.379Z,16.23
2022-09-17T17:30:16.667Z,14.98
2022-09-17T17:32:43.804Z,28.55
2022-09-17T17:35:10.634Z,25.98
2022-09-17T17:37:36.956Z,15.30
2022-09-17T17:40:06.812Z,45.75
2022-09-17T17:42:37.932Z,53.95
2022-09-17T17:45:06.032Z,16.25
2022-09-17T17:47:32.352Z,29.92
2022-09-17T17:49:58.740Z,16.02
2022-09-17T17:52:25.246Z,5.53
2022-09-17T17:54:51.539Z,14.18
2022-09-17T17:57:17.824Z,7.97
2022-09-17T17:59:44.124Z,9.88
2022-09-17T18:02:11.481Z,16.50
2022-09-17T18:04:37.881Z,8.23
2022-09-17T18:07:04.216Z,6.43
2022-09-17T18:09:30.519Z,11.38
2022-09-17T18:11:56.832Z,10.50
2022-09-17T18:14:23.123Z,13.57
2022-09-17T18:16:49.480Z,11.95
2022-09-17T18:19:15.764Z,40.38
2022-09-17T18:21:42.088Z,24.67
2022-09-17T18:24:08.394Z,9.70
2022-09-17T18:26:35.717Z,7.53
2022-09-17T18:29:07.049Z,8.48
2022-09-17T18:31:35.808Z,6.03
2022-09-17T18:34:04.907Z,10.82
2022-09-17T18:36:33.900Z,9.00
2022-09-17T18:39:16.980Z,9.05
2022-09-17T18:41:48.932Z,8.73
2022-09-17T18:44:15.688Z,9.15
2022-09-17T18:46:42.574Z,8.80
2022-09-17T18:49:09.059Z,6.20
2022-09-17T18:51:35.378Z,8.05
2022-09-17T18:54:03.029Z,12.90
2022-09-17T18:56:32.590Z,9.53
2022-09-17T18:59:02.391Z,10.80
2022-09-17T19:01:32.321Z,7.43
2022-09-17T19:03:59.416Z,7.25
2022-09-17T19:06:27.166Z,7.35
2022-09-17T19:08:55.417Z,11.73
2022-09-17T19:11:21.730Z,9.13
2022-09-17T19:13:51.477Z,8.50
2022-09-17T19:16:18.048Z,11.48
2022-09-17T19:18:44.754Z,7.38
2022-09-17T19:21:19.375Z,11.15
2022-09-17T19:23:49.087Z,11.95
2022-09-17T19:26:21.692Z,10.52
2022-09-17T19:28:51.148Z,8.93
2022-09-17T19:31:17.717Z,12.10
2022-09-17T19:33:45.198Z,8.32
2022-09-17T19:36:16.233Z,11.07
2022-09-17T19:38:43.402Z,10.35
2022-09-17T19:41:12.225Z,14.43
2022-09-17T19:43:39.537Z,11.00
2022-09-17T19:46:08.453Z,7.13
2022-09-17T19:48:38.006Z,7.82
2022-09-17T19:51:05.348Z,10.73
2022-09-17T19:53:32.532Z,12.85
2022-09-17T19:55:58.853Z,10.55
2022-09-17T19:58:25.154Z,11.30
2022-09-17T20:00:58.999Z,11.73
2022-09-17T20:03:25.963Z,11.27
2022-09-17T20:06:03.875Z,10.50
2022-09-17T20:08:30.913Z,9.70
2022-09-17T20:11:05.237Z,8.25
2022-09-17T20:13:31.769Z,10.57
2022-09-17T20:16:04.052Z,13.25
2022-09-17T20:18:30.477Z,20.02
2022-09-17T20:20:56.833Z,10.77
2022-09-17T20:23:23.116Z,12.25
2022-09-17T20:25:53.338Z,13.30
2022-09-17T20:28:20.036Z,12.07
2022-09-17T20:30:46.368Z,8.00
2022-09-17T20:33:13.201Z,13.30
2022-09-17T20:35:39.491Z,10.55
2022-09-17T20:38:57.825Z,12.38
2022-09-17T20:40:52.387Z,7.78
2022-09-17T20:43:18.690Z,12.00
2022-09-17T20:45:52.688Z,10.85
2022-09-17T20:48:18.973Z,9.75
2022-09-17T20:50:54.678Z,7.80
2022-09-17T20:53:20.968Z,12.57
2022-09-17T20:56:02.372Z,11.32
2022-09-17T20:58:30.644Z,13.38
2022-09-17T21:01:09.312Z,11.23
2022-09-17T21:03:35.836Z,11.32
2022-09-17T21:06:02.192Z,13.25
2022-09-17T21:08:28.828Z,16.88
2022-09-17T21:10:55.255Z,15.95
2022-09-17T21:13:21.565Z,19.98
2022-09-17T21:15:58.972Z,14.23
2022-09-17T21:18:25.798Z,11.30
2022-09-17T21:20:52.109Z,11.95
2022-09-17T21:23:29.243Z,9.65
2022-09-17T21:26:12.935Z,9.27
2022-09-17T21:28:40.144Z,12.25
2022-09-17T21:31:10.697Z,9.52
2022-09-17T21:33:37.392Z,10.90
2022-09-17T21:36:06.257Z,10.18
2022-09-17T21:38:32.988Z,11.00
2022-09-17T21:41:01.344Z,7.60
2022-09-17T21:43:28.169Z,15.77
2022-09-17T21:45:59.601Z,8.05
2022-09-17T21:48:26.284Z,20.13
2022-09-17T21:50:53.149Z,9.10
2022-09-17T21:53:19.681Z,11.43
2022-09-17T21:55:45.965Z,10.90
2022-09-17T21:58:12.253Z,10.15
2022-09-17T22:00:38.581Z,8.40
2022-09-17T22:03:04.987Z,9.80
2022-09-17T22:05:32.589Z,8.88
2022-09-17T22:07:58.891Z,10.35
2022-09-17T22:10:25.242Z,12.27
2022-09-17T22:12:51.537Z,12.75
2022-09-17T22:15:17.824Z,9.10
2022-09-17T22:17:44.124Z,7.65
2022-09-17T22:20:10.434Z,13.18
2022-09-17T22:22:36.748Z,6.82
2022-09-17T22:25:03.228Z,8.82
2022-09-17T22:27:29.525Z,13.45
2022-09-17T22:29:55.805Z,11.70
2022-09-17T22:32:22.586Z,8.85
2022-09-17T22:34:49.587Z,11.75
2022-09-17T22:37:16.473Z,8.73
2022-09-17T22:39:42.752Z,6.85
2022-09-17T22:42:09.025Z,11.75
2022-09-17T22:44:35.358Z,9.45
2022-09-17T22:47:01.735Z,4.35
2022-09-17T22:49:28.087Z,10.00
2022-09-17T22:51:54.398Z,9.70
2022-09-17T22:54:20.687Z,11.10
2022-09-17T22:56:48.283Z,9.45
2022-09-17T22:59:14.867Z,9.40
2022-09-17T23:01:41.677Z,6.57
2022-09-17T23:04:08.859Z,10.48
2022-09-17T23:06:38.094Z,10.32
2022-09-17T23:09:05.438Z,6.53
2022-09-17T23:11:34.621Z,9.57
2022-09-17T23:14:03.452Z,5.38
2022-09-17T23:16:35.072Z,4.75
2022-09-17T23:19:01.367Z,12.10
2022-09-17T23:21:27.649Z,9.68
2022-09-17T23:23:53.980Z,9.73
2022-09-17T23:26:23.056Z,7.97
2022-09-17T23:28:49.952Z,6.70
2022-09-17T23:31:21.291Z,7.07
2022-09-17T23:33:48.345Z,6.28
2022-09-17T23:36:17.372Z,9.13
2022-09-17T23:38:44.663Z,6.78
2022-09-17T23:41:19.780Z,9.40
2022-09-17T23:43:48.929Z,7.78
2022-09-17T23:46:15.778Z,7.13
2022-09-17T23:48:42.436Z,9.93
2022-09-17T23:51:09.329Z,5.18
2022-09-17T23:53:36.521Z,11.77
2022-09-17T23:56:04.551Z,10.40
2022-09-17T23:58:32.643Z,7.88
